sensor_id;sensor_type;location;lat;lon;timestamp;temperature;humidity
827;DHT22;395;48.132;11.608;2023-02-13T00:02:13;5.80;6.30
827;DHT22;395;48.132;11.608;2023-02-13T00:04:40;5.70;6.30
827;DHT22;395;48.132;11.608;2023-02-13T00:07:10;5.80;6.50
827;DHT22;395;48.132;11.608;2023-02-13T00:09:37;5.80;6.70
827;DHT22;395;48.132;11.608;2023-02-13T00:12:03;5.80;6.70
827;DHT22;395;48.132;11.608;2023-02-13T00:14:29;5.80;6.90
827;DHT22;395;48.132;11.608;2023-02-13T00:16:55;5.80;7.00
827;DHT22;395;48.132;11.608;2023-02-13T00:19:20;5.80;7.00
827;DHT22;395;48.132;11.608;2023-02-13T00:21:47;5.80;7.20
827;DHT22;395;48.132;11.608;2023-02-13T00:24:13;5.80;7.30
827;DHT22;395;48.132;11.608;2023-02-13T00:26:39;5.80;7.50
827;DHT22;395;48.132;11.608;2023-02-13T00:29:05;5.80;7.60
827;DHT22;395;48.132;11.608;2023-02-13T00:31:31;5.80;7.70
827;DHT22;395;48.132;11.608;2023-02-13T00:33:57;5.80;7.80
827;DHT22;395;48.132;11.608;2023-02-13T00:36:23;5.80;7.80
827;DHT22;395;48.132;11.608;2023-02-13T00:38:50;5.80;7.90
827;DHT22;395;48.132;11.608;2023-02-13T00:41:16;5.80;8.10
827;DHT22;395;48.132;11.608;2023-02-13T00:43:43;5.80;8.30
827;DHT22;395;48.132;11.608;2023-02-13T00:46:08;5.80;8.30
827;DHT22;395;48.132;11.608;2023-02-13T00:48:35;5.80;8.30
827;DHT22;395;48.132;11.608;2023-02-13T00:51:01;5.80;8.40
827;DHT22;395;48.132;11.608;2023-02-13T00:53:27;5.80;8.60
827;DHT22;395;48.132;11.608;2023-02-13T00:55:53;5.90;8.90
827;DHT22;395;48.132;11.608;2023-02-13T00:58:19;5.80;8.80
827;DHT22;395;48.132;11.608;2023-02-13T01:00:45;5.80;8.80
827;DHT22;395;48.132;11.608;2023-02-13T01:03:13;5.90;8.60
827;DHT22;395;48.132;11.608;2023-02-13T01:05:38;5.90;8.50
827;DHT22;395;48.132;11.608;2023-02-13T01:08:04;5.90;8.40
827;DHT22;395;48.132;11.608;2023-02-13T01:10:31;5.90;8.40
827;DHT22;395;48.132;11.608;2023-02-13T01:12:56;5.90;8.50
827;DHT22;395;48.132;11.608;2023-02-13T01:15:23;5.90;8.50
827;DHT22;395;48.132;11.608;2023-02-13T01:17:48;5.90;8.40
827;DHT22;395;48.132;11.608;2023-02-13T01:20:14;5.90;8.30
827;DHT22;395;48.132;11.608;2023-02-13T01:22:40;5.90;8.30
827;DHT22;395;48.132;11.608;2023-02-13T01:25:09;6.00;8.30
827;DHT22;395;48.132;11.608;2023-02-13T01:27:34;5.90;8.00
827;DHT22;395;48.132;11.608;2023-02-13T01:30:03;5.90;8.00
827;DHT22;395;48.132;11.608;2023-02-13T01:32:29;5.90;8.00
827;DHT22;395;48.132;11.608;2023-02-13T01:34:55;5.90;7.90
827;DHT22;395;48.132;11.608;2023-02-13T01:37:20;6.00;7.90
827;DHT22;395;48.132;11.608;2023-02-13T01:39:46;5.90;7.80
827;DHT22;395;48.132;11.608;2023-02-13T01:42:16;5.90;7.80
827;DHT22;395;48.132;11.608;2023-02-13T01:47:14;6.00;7.90
827;DHT22;395;48.132;11.608;2023-02-13T01:49:41;6.00;7.40
827;DHT22;395;48.132;11.608;2023-02-13T01:52:10;6.00;7.20
827;DHT22;395;48.132;11.608;2023-02-13T01:54:37;6.00;7.00
827;DHT22;395;48.132;11.608;2023-02-13T01:57:14;6.00;6.90
827;DHT22;395;48.132;11.608;2023-02-13T01:59:48;5.90;6.90
827;DHT22;395;48.132;11.608;2023-02-13T02:02:16;6.00;7.00
827;DHT22;395;48.132;11.608;2023-02-13T02:04:43;5.90;6.80
827;DHT22;395;48.132;11.608;2023-02-13T02:07:22;6.20;7.00
827;DHT22;395;48.132;11.608;2023-02-13T02:09:49;6.00;6.60
827;DHT22;395;48.132;11.608;2023-02-13T02:12:25;5.90;6.60
827;DHT22;395;48.132;11.608;2023-02-13T02:14:54;6.00;6.50
827;DHT22;395;48.132;11.608;2023-02-13T02:17:21;5.90;6.50
827;DHT22;395;48.132;11.608;2023-02-13T02:25:39;5.90;6.10
827;DHT22;395;48.132;11.608;2023-02-13T02:39:45;5.80;6.20
827;DHT22;395;48.132;11.608;2023-02-13T02:45:25;5.80;6.30
827;DHT22;395;48.132;11.608;2023-02-13T02:48:04;5.80;6.40
827;DHT22;395;48.132;11.608;2023-02-13T02:51:13;5.80;6.30
827;DHT22;395;48.132;11.608;2023-02-13T02:53:52;5.80;6.10
827;DHT22;395;48.132;11.608;2023-02-13T02:56:33;5.80;6.10
827;DHT22;395;48.132;11.608;2023-02-13T02:59:04;5.80;6.10
827;DHT22;395;48.132;11.608;2023-02-13T03:01:52;5.80;5.90
827;DHT22;395;48.132;11.608;2023-02-13T03:04:46;5.80;5.80
827;DHT22;395;48.132;11.608;2023-02-13T03:07:44;5.80;5.30
827;DHT22;395;48.132;11.608;2023-02-13T03:10:15;5.80;5.30
827;DHT22;395;48.132;11.608;2023-02-13T03:13:08;5.80;5.30
827;DHT22;395;48.132;11.608;2023-02-13T03:15:50;5.80;5.30
827;DHT22;395;48.132;11.608;2023-02-13T03:18:41;5.80;5.20
827;DHT22;395;48.132;11.608;2023-02-13T03:24:58;5.70;5.00
827;DHT22;395;48.132;11.608;2023-02-13T03:27:53;5.70;5.10
827;DHT22;395;48.132;11.608;2023-02-13T03:30:55;5.70;4.90
827;DHT22;395;48.132;11.608;2023-02-13T03:39:20;5.60;5.00
827;DHT22;395;48.132;11.608;2023-02-13T03:42:11;5.60;5.00
827;DHT22;395;48.132;11.608;2023-02-13T03:44:48;5.60;5.20
827;DHT22;395;48.132;11.608;2023-02-13T03:47:38;5.60;5.20
827;DHT22;395;48.132;11.608;2023-02-13T03:50:06;5.60;5.20
827;DHT22;395;48.132;11.608;2023-02-13T03:55:19;5.60;5.20
827;DHT22;395;48.132;11.608;2023-02-13T03:58:25;5.60;5.40
827;DHT22;395;48.132;11.608;2023-02-13T04:01:14;5.60;5.90
827;DHT22;395;48.132;11.608;2023-02-13T04:04:09;5.60;5.50
827;DHT22;395;48.132;11.608;2023-02-13T04:06:48;5.60;5.50
827;DHT22;395;48.132;11.608;2023-02-13T04:09:14;5.60;5.60
827;DHT22;395;48.132;11.608;2023-02-13T04:11:44;5.60;5.80
827;DHT22;395;48.132;11.608;2023-02-13T04:14:26;5.60;5.90
827;DHT22;395;48.132;11.608;2023-02-13T04:17:03;5.60;5.90
827;DHT22;395;48.132;11.608;2023-02-13T04:19:31;5.60;5.80
827;DHT22;395;48.132;11.608;2023-02-13T04:21:58;5.60;5.60
827;DHT22;395;48.132;11.608;2023-02-13T04:24:25;5.60;5.50
827;DHT22;395;48.132;11.608;2023-02-13T04:26:52;5.60;5.20
827;DHT22;395;48.132;11.608;2023-02-13T04:29:18;5.60;5.20
827;DHT22;395;48.132;11.608;2023-02-13T04:31:44;5.60;5.20
827;DHT22;395;48.132;11.608;2023-02-13T04:34:09;5.60;5.20
827;DHT22;395;48.132;11.608;2023-02-13T04:36:35;5.60;5.00
827;DHT22;395;48.132;11.608;2023-02-13T04:39:01;5.60;4.80
827;DHT22;395;48.132;11.608;2023-02-13T04:41:26;5.60;4.80
827;DHT22;395;48.132;11.608;2023-02-13T04:43:52;5.50;4.60
827;DHT22;395;48.132;11.608;2023-02-13T04:46:18;5.50;4.50
827;DHT22;395;48.132;11.608;2023-02-13T04:48:43;5.50;4.40
827;DHT22;395;48.132;11.608;2023-02-13T04:51:10;5.50;4.40
827;DHT22;395;48.132;11.608;2023-02-13T04:53:35;5.50;4.40
827;DHT22;395;48.132;11.608;2023-02-13T04:56:01;5.50;4.40
827;DHT22;395;48.132;11.608;2023-02-13T04:58:27;5.50;4.40
827;DHT22;395;48.132;11.608;2023-02-13T05:00:52;5.50;5.00
827;DHT22;395;48.132;11.608;2023-02-13T05:03:18;5.50;4.40
827;DHT22;395;48.132;11.608;2023-02-13T05:05:43;5.50;4.40
827;DHT22;395;48.132;11.608;2023-02-13T05:08:09;5.50;4.40
827;DHT22;395;48.132;11.608;2023-02-13T05:10:35;5.50;4.40
827;DHT22;395;48.132;11.608;2023-02-13T05:13:01;5.50;4.50
827;DHT22;395;48.132;11.608;2023-02-13T05:15:27;5.50;4.50
827;DHT22;395;48.132;11.608;2023-02-13T05:17:53;5.50;4.40
827;DHT22;395;48.132;11.608;2023-02-13T05:20:18;5.50;4.40
827;DHT22;395;48.132;11.608;2023-02-13T05:22:46;5.50;4.40
827;DHT22;395;48.132;11.608;2023-02-13T05:25:31;5.50;4.30
827;DHT22;395;48.132;11.608;2023-02-13T05:27:57;5.50;4.20
827;DHT22;395;48.132;11.608;2023-02-13T05:30:23;5.40;4.10
827;DHT22;395;48.132;11.608;2023-02-13T05:32:49;5.50;4.10
827;DHT22;395;48.132;11.608;2023-02-13T05:35:20;5.50;4.10
827;DHT22;395;48.132;11.608;2023-02-13T05:37:46;5.50;4.10
827;DHT22;395;48.132;11.608;2023-02-13T05:40:12;5.50;4.20
827;DHT22;395;48.132;11.608;2023-02-13T05:42:38;5.50;4.10
827;DHT22;395;48.132;11.608;2023-02-13T05:45:05;5.50;4.10
827;DHT22;395;48.132;11.608;2023-02-13T05:47:30;5.50;4.00
827;DHT22;395;48.132;11.608;2023-02-13T05:49:56;5.50;4.10
827;DHT22;395;48.132;11.608;2023-02-13T05:52:22;5.50;4.00
827;DHT22;395;48.132;11.608;2023-02-13T05:54:48;5.50;3.90
827;DHT22;395;48.132;11.608;2023-02-13T05:57:14;5.40;3.70
827;DHT22;395;48.132;11.608;2023-02-13T05:59:39;5.40;3.60
827;DHT22;395;48.132;11.608;2023-02-13T06:02:05;5.40;3.60
827;DHT22;395;48.132;11.608;2023-02-13T06:04:30;5.40;3.80
827;DHT22;395;48.132;11.608;2023-02-13T06:06:56;5.40;3.80
827;DHT22;395;48.132;11.608;2023-02-13T06:09:22;5.40;3.80
827;DHT22;395;48.132;11.608;2023-02-13T06:11:48;5.40;3.70
827;DHT22;395;48.132;11.608;2023-02-13T06:14:13;5.40;3.70
827;DHT22;395;48.132;11.608;2023-02-13T06:16:40;5.40;3.60
827;DHT22;395;48.132;11.608;2023-02-13T06:19:05;5.50;3.60
827;DHT22;395;48.132;11.608;2023-02-13T06:21:31;5.40;3.50
827;DHT22;395;48.132;11.608;2023-02-13T06:24:05;5.40;3.40
827;DHT22;395;48.132;11.608;2023-02-13T06:26:31;5.40;3.40
827;DHT22;395;48.132;11.608;2023-02-13T06:28:56;5.40;3.40
827;DHT22;395;48.132;11.608;2023-02-13T06:31:22;5.40;3.40
827;DHT22;395;48.132;11.608;2023-02-13T06:33:48;5.40;3.50
827;DHT22;395;48.132;11.608;2023-02-13T06:36:13;5.40;3.60
827;DHT22;395;48.132;11.608;2023-02-13T06:38:39;5.40;3.60
827;DHT22;395;48.132;11.608;2023-02-13T06:41:05;5.40;3.60
827;DHT22;395;48.132;11.608;2023-02-13T06:43:31;5.40;3.50
827;DHT22;395;48.132;11.608;2023-02-13T06:45:57;5.40;3.50
827;DHT22;395;48.132;11.608;2023-02-13T06:48:23;5.40;3.40
827;DHT22;395;48.132;11.608;2023-02-13T06:50:48;5.40;3.40
827;DHT22;395;48.132;11.608;2023-02-13T06:53:17;5.40;3.40
827;DHT22;395;48.132;11.608;2023-02-13T06:55:45;5.40;3.30
827;DHT22;395;48.132;11.608;2023-02-13T06:58:11;5.40;3.20
827;DHT22;395;48.132;11.608;2023-02-13T07:00:36;5.40;3.10
827;DHT22;395;48.132;11.608;2023-02-13T07:03:04;5.40;3.00
827;DHT22;395;48.132;11.608;2023-02-13T07:05:31;5.40;3.20
827;DHT22;395;48.132;11.608;2023-02-13T07:07:56;5.40;3.20
827;DHT22;395;48.132;11.608;2023-02-13T07:10:22;5.40;3.40
827;DHT22;395;48.132;11.608;2023-02-13T07:12:48;5.40;3.40
827;DHT22;395;48.132;11.608;2023-02-13T07:15:15;5.50;3.50
827;DHT22;395;48.132;11.608;2023-02-13T07:17:40;5.50;3.60
827;DHT22;395;48.132;11.608;2023-02-13T07:20:06;5.50;3.60
827;DHT22;395;48.132;11.608;2023-02-13T07:22:33;5.50;3.60
827;DHT22;395;48.132;11.608;2023-02-13T07:24:59;5.50;4.00
827;DHT22;395;48.132;11.608;2023-02-13T07:27:26;5.50;3.40
827;DHT22;395;48.132;11.608;2023-02-13T07:29:54;5.50;3.40
827;DHT22;395;48.132;11.608;2023-02-13T07:32:21;5.50;3.40
827;DHT22;395;48.132;11.608;2023-02-13T07:34:46;5.50;3.40
827;DHT22;395;48.132;11.608;2023-02-13T07:37:12;5.50;3.40
827;DHT22;395;48.132;11.608;2023-02-13T07:39:38;5.50;3.40
827;DHT22;395;48.132;11.608;2023-02-13T07:42:05;5.50;3.40
827;DHT22;395;48.132;11.608;2023-02-13T07:44:31;5.50;3.60
827;DHT22;395;48.132;11.608;2023-02-13T07:46:56;5.50;3.60
827;DHT22;395;48.132;11.608;2023-02-13T07:49:22;5.50;3.50
827;DHT22;395;48.132;11.608;2023-02-13T07:51:48;5.50;3.50
827;DHT22;395;48.132;11.608;2023-02-13T07:54:13;5.50;3.50
827;DHT22;395;48.132;11.608;2023-02-13T07:56:39;5.60;3.70
827;DHT22;395;48.132;11.608;2023-02-13T07:59:05;5.50;3.70
827;DHT22;395;48.132;11.608;2023-02-13T08:01:30;5.50;3.60
827;DHT22;395;48.132;11.608;2023-02-13T08:03:56;5.60;3.80
827;DHT22;395;48.132;11.608;2023-02-13T08:06:22;5.60;3.70
827;DHT22;395;48.132;11.608;2023-02-13T08:08:47;5.60;3.70
827;DHT22;395;48.132;11.608;2023-02-13T08:11:30;5.60;3.80
827;DHT22;395;48.132;11.608;2023-02-13T08:14:15;5.70;3.90
827;DHT22;395;48.132;11.608;2023-02-13T08:16:41;5.70;3.80
827;DHT22;395;48.132;11.608;2023-02-13T08:19:06;5.70;3.70
827;DHT22;395;48.132;11.608;2023-02-13T08:21:32;5.70;3.50
827;DHT22;395;48.132;11.608;2023-02-13T08:23:59;5.70;3.40
827;DHT22;395;48.132;11.608;2023-02-13T08:26:25;5.70;3.30
827;DHT22;395;48.132;11.608;2023-02-13T08:28:51;5.70;3.10
827;DHT22;395;48.132;11.608;2023-02-13T08:31:16;5.70;2.90
827;DHT22;395;48.132;11.608;2023-02-13T08:33:42;5.70;2.80
827;DHT22;395;48.132;11.608;2023-02-13T08:36:08;5.70;2.80
827;DHT22;395;48.132;11.608;2023-02-13T08:38:34;5.70;2.90
827;DHT22;395;48.132;11.608;2023-02-13T08:40:59;5.70;3.00
827;DHT22;395;48.132;11.608;2023-02-13T08:43:25;5.70;2.90
827;DHT22;395;48.132;11.608;2023-02-13T08:45:50;5.70;2.90
827;DHT22;395;48.132;11.608;2023-02-13T08:48:16;5.80;3.00
827;DHT22;395;48.132;11.608;2023-02-13T08:50:42;5.80;3.10
827;DHT22;395;48.132;11.608;2023-02-13T08:53:07;5.80;3.10
827;DHT22;395;48.132;11.608;2023-02-13T08:55:33;5.80;2.80
827;DHT22;395;48.132;11.608;2023-02-13T08:58:01;5.80;2.70
827;DHT22;395;48.132;11.608;2023-02-13T09:00:27;5.80;2.60
827;DHT22;395;48.132;11.608;2023-02-13T09:02:52;5.80;2.50
827;DHT22;395;48.132;11.608;2023-02-13T09:05:18;5.80;2.50
827;DHT22;395;48.132;11.608;2023-02-13T09:07:44;5.80;2.40
827;DHT22;395;48.132;11.608;2023-02-13T09:10:10;5.90;2.40
827;DHT22;395;48.132;11.608;2023-02-13T09:12:36;5.80;2.10
827;DHT22;395;48.132;11.608;2023-02-13T09:15:01;5.90;2.20
827;DHT22;395;48.132;11.608;2023-02-13T09:17:27;5.80;2.10
827;DHT22;395;48.132;11.608;2023-02-13T09:19:54;5.80;2.20
827;DHT22;395;48.132;11.608;2023-02-13T09:22:19;5.90;2.40
827;DHT22;395;48.132;11.608;2023-02-13T09:24:45;5.90;2.30
827;DHT22;395;48.132;11.608;2023-02-13T09:27:11;5.80;2.00
827;DHT22;395;48.132;11.608;2023-02-13T09:29:36;5.90;2.10
827;DHT22;395;48.132;11.608;2023-02-13T09:32:04;5.80;2.00
827;DHT22;395;48.132;11.608;2023-02-13T09:34:29;5.90;2.00
827;DHT22;395;48.132;11.608;2023-02-13T09:36:55;5.90;1.60
827;DHT22;395;48.132;11.608;2023-02-13T09:39:20;5.90;1.70
827;DHT22;395;48.132;11.608;2023-02-13T09:41:48;6.00;1.70
827;DHT22;395;48.132;11.608;2023-02-13T09:44:38;5.90;1.60
827;DHT22;395;48.132;11.608;2023-02-13T09:49:53;5.90;2.20
827;DHT22;395;48.132;11.608;2023-02-13T09:52:20;5.90;1.60
827;DHT22;395;48.132;11.608;2023-02-13T09:54:45;5.90;1.60
827;DHT22;395;48.132;11.608;2023-02-13T09:57:39;5.90;1.60
827;DHT22;395;48.132;11.608;2023-02-13T10:00:14;6.00;1.70
827;DHT22;395;48.132;11.608;2023-02-13T10:02:52;6.00;1.70
827;DHT22;395;48.132;11.608;2023-02-13T10:08:42;6.00;1.70
827;DHT22;395;48.132;11.608;2023-02-13T10:21:51;6.00;1.60
827;DHT22;395;48.132;11.608;2023-02-13T10:24:45;6.10;1.70
827;DHT22;395;48.132;11.608;2023-02-13T10:27:20;6.10;1.70
827;DHT22;395;48.132;11.608;2023-02-13T10:30:08;6.10;1.60
827;DHT22;395;48.132;11.608;2023-02-13T10:35:44;6.10;1.50
827;DHT22;395;48.132;11.608;2023-02-13T10:38:17;6.20;1.80
827;DHT22;395;48.132;11.608;2023-02-13T10:51:54;6.30;1.20
827;DHT22;395;48.132;11.608;2023-02-13T10:57:13;6.30;1.00
827;DHT22;395;48.132;11.608;2023-02-13T11:02:30;6.30;1.00
827;DHT22;395;48.132;11.608;2023-02-13T11:05:04;6.40;1.00
827;DHT22;395;48.132;11.608;2023-02-13T11:07:33;6.40;1.00
827;DHT22;395;48.132;11.608;2023-02-13T11:10:04;6.40;1.00
827;DHT22;395;48.132;11.608;2023-02-13T11:12:33;6.40;1.00
827;DHT22;395;48.132;11.608;2023-02-13T11:15:00;6.40;1.00
827;DHT22;395;48.132;11.608;2023-02-13T11:17:29;6.40;1.00
827;DHT22;395;48.132;11.608;2023-02-13T11:19:58;6.40;1.00
827;DHT22;395;48.132;11.608;2023-02-13T11:22:31;6.40;1.00
827;DHT22;395;48.132;11.608;2023-02-13T11:25:27;6.40;1.00
827;DHT22;395;48.132;11.608;2023-02-13T11:28:09;6.40;1.00
827;DHT22;395;48.132;11.608;2023-02-13T11:30:36;6.40;1.00
827;DHT22;395;48.132;11.608;2023-02-13T11:35:44;6.40;1.00
827;DHT22;395;48.132;11.608;2023-02-13T11:40:50;6.40;1.00
827;DHT22;395;48.132;11.608;2023-02-13T11:43:29;6.40;1.00
827;DHT22;395;48.132;11.608;2023-02-13T11:46:07;6.40;1.00
827;DHT22;395;48.132;11.608;2023-02-13T11:48:34;6.40;1.00
827;DHT22;395;48.132;11.608;2023-02-13T11:51:01;6.40;1.00
827;DHT22;395;48.132;11.608;2023-02-13T11:53:31;6.50;1.00
827;DHT22;395;48.132;11.608;2023-02-13T11:56:10;6.50;1.00
827;DHT22;395;48.132;11.608;2023-02-13T11:58:36;6.50;1.00
827;DHT22;395;48.132;11.608;2023-02-13T12:03:34;6.50;1.00
827;DHT22;395;48.132;11.608;2023-02-13T12:06:14;6.60;1.00
827;DHT22;395;48.132;11.608;2023-02-13T12:08:43;6.60;1.00
827;DHT22;395;48.132;11.608;2023-02-13T12:12:10;6.60;1.00
827;DHT22;395;48.132;11.608;2023-02-13T12:14:05;6.60;1.00
827;DHT22;395;48.132;11.608;2023-02-13T12:16:44;6.60;1.00
827;DHT22;395;48.132;11.608;2023-02-13T12:19:19;6.70;1.00
827;DHT22;395;48.132;11.608;2023-02-13T12:22:12;6.70;1.00
827;DHT22;395;48.132;11.608;2023-02-13T12:40:57;6.80;1.00
827;DHT22;395;48.132;11.608;2023-02-13T12:46:30;6.80;1.00
827;DHT22;395;48.132;11.608;2023-02-13T12:58:30;6.80;1.00
827;DHT22;395;48.132;11.608;2023-02-13T13:01:22;6.90;1.00
827;DHT22;395;48.132;11.608;2023-02-13T13:20:21;6.90;1.00
827;DHT22;395;48.132;11.608;2023-02-13T13:22:48;6.90;1.00
827;DHT22;395;48.132;11.608;2023-02-13T13:27:52;6.90;1.00
827;DHT22;395;48.132;11.608;2023-02-13T13:30:27;6.90;1.00
827;DHT22;395;48.132;11.608;2023-02-13T13:33:08;6.90;1.00
827;DHT22;395;48.132;11.608;2023-02-13T13:35:39;6.90;1.00
827;DHT22;395;48.132;11.608;2023-02-13T13:38:24;7.00;1.00
827;DHT22;395;48.132;11.608;2023-02-13T13:41:01;7.00;1.00
827;DHT22;395;48.132;11.608;2023-02-13T13:49:48;7.00;1.00
827;DHT22;395;48.132;11.608;2023-02-13T13:52:35;7.00;1.00
827;DHT22;395;48.132;11.608;2023-02-13T13:55:02;6.90;1.00
827;DHT22;395;48.132;11.608;2023-02-13T14:02:44;6.90;1.00
827;DHT22;395;48.132;11.608;2023-02-13T14:05:26;6.90;1.00
827;DHT22;395;48.132;11.608;2023-02-13T14:12:47;6.80;1.00
827;DHT22;395;48.132;11.608;2023-02-13T14:20:50;6.80;1.00
827;DHT22;395;48.132;11.608;2023-02-13T14:28:35;6.80;1.00
827;DHT22;395;48.132;11.608;2023-02-13T14:31:07;6.80;1.00
827;DHT22;395;48.132;11.608;2023-02-13T14:33:35;6.80;1.00
827;DHT22;395;48.132;11.608;2023-02-13T14:36:05;6.80;1.00
827;DHT22;395;48.132;11.608;2023-02-13T14:38:32;6.80;1.00
827;DHT22;395;48.132;11.608;2023-02-13T14:40:58;6.80;1.00
827;DHT22;395;48.132;11.608;2023-02-13T14:46:17;6.80;1.00
827;DHT22;395;48.132;11.608;2023-02-13T14:51:40;6.80;1.00
827;DHT22;395;48.132;11.608;2023-02-13T14:54:18;6.80;1.00
827;DHT22;395;48.132;11.608;2023-02-13T14:56:49;6.80;1.00
827;DHT22;395;48.132;11.608;2023-02-13T14:59:17;6.80;1.00
827;DHT22;395;48.132;11.608;2023-02-13T15:04:18;6.70;1.00
827;DHT22;395;48.132;11.608;2023-02-13T15:06:48;6.70;1.00
827;DHT22;395;48.132;11.608;2023-02-13T15:09:25;6.80;1.00
827;DHT22;395;48.132;11.608;2023-02-13T15:11:52;6.70;1.00
827;DHT22;395;48.132;11.608;2023-02-13T15:14:27;6.70;1.00
827;DHT22;395;48.132;11.608;2023-02-13T15:19:26;6.70;1.00
827;DHT22;395;48.132;11.608;2023-02-13T15:21:58;6.70;1.00
827;DHT22;395;48.132;11.608;2023-02-13T15:24:24;6.70;1.00
827;DHT22;395;48.132;11.608;2023-02-13T15:27:03;6.70;1.00
827;DHT22;395;48.132;11.608;2023-02-13T15:29:31;6.70;1.00
827;DHT22;395;48.132;11.608;2023-02-13T15:31:57;6.70;1.00
827;DHT22;395;48.132;11.608;2023-02-13T15:34:31;6.70;1.00
827;DHT22;395;48.132;11.608;2023-02-13T15:37:00;6.70;1.00
827;DHT22;395;48.132;11.608;2023-02-13T15:39:29;6.70;1.00
827;DHT22;395;48.132;11.608;2023-02-13T15:41:57;6.60;1.00
827;DHT22;395;48.132;11.608;2023-02-13T15:44:37;6.60;1.00
827;DHT22;395;48.132;11.608;2023-02-13T15:49:37;6.60;1.00
827;DHT22;395;48.132;11.608;2023-02-13T15:52:12;6.60;1.00
827;DHT22;395;48.132;11.608;2023-02-13T15:54:48;6.60;1.00
827;DHT22;395;48.132;11.608;2023-02-13T15:57:14;6.70;1.00
827;DHT22;395;48.132;11.608;2023-02-13T15:59:40;6.60;1.00
827;DHT22;395;48.132;11.608;2023-02-13T16:02:13;6.60;1.00
827;DHT22;395;48.132;11.608;2023-02-13T16:04:40;6.60;1.00
827;DHT22;395;48.132;11.608;2023-02-13T16:07:10;6.60;1.00
827;DHT22;395;48.132;11.608;2023-02-13T16:09:37;6.50;1.00
827;DHT22;395;48.132;11.608;2023-02-13T16:12:16;6.50;1.00
827;DHT22;395;48.132;11.608;2023-02-13T16:14:58;6.50;1.00
827;DHT22;395;48.132;11.608;2023-02-13T16:17:28;6.50;1.00
827;DHT22;395;48.132;11.608;2023-02-13T16:19:58;6.50;1.00
827;DHT22;395;48.132;11.608;2023-02-13T16:22:42;6.50;1.00
827;DHT22;395;48.132;11.608;2023-02-13T16:30:36;6.50;1.00
827;DHT22;395;48.132;11.608;2023-02-13T16:35:44;6.40;1.00
827;DHT22;395;48.132;11.608;2023-02-13T16:38:42;6.40;1.00
827;DHT22;395;48.132;11.608;2023-02-13T16:44:03;6.40;1.00
827;DHT22;395;48.132;11.608;2023-02-13T16:46:36;6.40;1.00
827;DHT22;395;48.132;11.608;2023-02-13T16:51:49;6.40;1.00
827;DHT22;395;48.132;11.608;2023-02-13T17:07:29;6.30;1.00
827;DHT22;395;48.132;11.608;2023-02-13T17:09:58;6.30;1.00
827;DHT22;395;48.132;11.608;2023-02-13T17:12:25;6.40;1.00
827;DHT22;395;48.132;11.608;2023-02-13T17:14:52;6.30;1.00
827;DHT22;395;48.132;11.608;2023-02-13T17:17:19;6.30;1.00
827;DHT22;395;48.132;11.608;2023-02-13T17:19:45;6.40;1.00
827;DHT22;395;48.132;11.608;2023-02-13T17:24:48;6.30;1.00
827;DHT22;395;48.132;11.608;2023-02-13T17:27:14;6.30;1.00
827;DHT22;395;48.132;11.608;2023-02-13T17:29:40;6.30;1.00
827;DHT22;395;48.132;11.608;2023-02-13T17:32:08;6.20;1.00
827;DHT22;395;48.132;11.608;2023-02-13T17:34:35;6.20;1.00
827;DHT22;395;48.132;11.608;2023-02-13T17:37:01;6.20;1.00
827;DHT22;395;48.132;11.608;2023-02-13T17:39:26;6.20;1.00
827;DHT22;395;48.132;11.608;2023-02-13T17:41:52;6.20;1.10
827;DHT22;395;48.132;11.608;2023-02-13T17:44:18;6.20;1.10
827;DHT22;395;48.132;11.608;2023-02-13T17:46:44;6.20;1.20
827;DHT22;395;48.132;11.608;2023-02-13T17:49:10;6.20;1.10
827;DHT22;395;48.132;11.608;2023-02-13T17:51:38;6.20;1.20
827;DHT22;395;48.132;11.608;2023-02-13T17:54:04;6.20;1.30
827;DHT22;395;48.132;11.608;2023-02-13T17:56:29;6.10;1.20
827;DHT22;395;48.132;11.608;2023-02-13T17:58:55;6.10;1.30
827;DHT22;395;48.132;11.608;2023-02-13T18:01:20;6.10;1.40
827;DHT22;395;48.132;11.608;2023-02-13T18:03:48;6.10;1.40
827;DHT22;395;48.132;11.608;2023-02-13T18:06:13;6.10;1.60
827;DHT22;395;48.132;11.608;2023-02-13T18:08:40;6.10;1.70
827;DHT22;395;48.132;11.608;2023-02-13T18:11:09;6.10;1.70
827;DHT22;395;48.132;11.608;2023-02-13T18:13:35;5.90;1.60
827;DHT22;395;48.132;11.608;2023-02-13T18:16:07;6.00;1.70
827;DHT22;395;48.132;11.608;2023-02-13T18:18:33;6.00;1.60
827;DHT22;395;48.132;11.608;2023-02-13T18:20:58;6.00;1.70
827;DHT22;395;48.132;11.608;2023-02-13T18:23:24;6.00;1.70
827;DHT22;395;48.132;11.608;2023-02-13T18:25:50;6.00;1.70
827;DHT22;395;48.132;11.608;2023-02-13T18:28:15;5.90;1.60
827;DHT22;395;48.132;11.608;2023-02-13T18:30:41;5.90;1.60
827;DHT22;395;48.132;11.608;2023-02-13T18:33:07;5.90;1.60
827;DHT22;395;48.132;11.608;2023-02-13T18:35:33;5.90;1.60
827;DHT22;395;48.132;11.608;2023-02-13T18:38:00;5.90;1.60
827;DHT22;395;48.132;11.608;2023-02-13T18:40:26;5.80;1.60
827;DHT22;395;48.132;11.608;2023-02-13T18:42:52;5.80;1.90
827;DHT22;395;48.132;11.608;2023-02-13T18:45:17;5.80;1.90
827;DHT22;395;48.132;11.608;2023-02-13T18:47:43;5.80;1.90
827;DHT22;395;48.132;11.608;2023-02-13T18:50:09;5.70;2.00
827;DHT22;395;48.132;11.608;2023-02-13T18:52:35;5.70;2.00
827;DHT22;395;48.132;11.608;2023-02-13T18:55:00;5.70;2.00
827;DHT22;395;48.132;11.608;2023-02-13T18:57:26;5.70;2.00
827;DHT22;395;48.132;11.608;2023-02-13T18:59:52;5.70;2.10
827;DHT22;395;48.132;11.608;2023-02-13T19:02:17;5.70;2.20
827;DHT22;395;48.132;11.608;2023-02-13T19:04:43;5.60;2.10
827;DHT22;395;48.132;11.608;2023-02-13T19:07:09;5.60;2.20
827;DHT22;395;48.132;11.608;2023-02-13T19:09:34;5.60;2.20
827;DHT22;395;48.132;11.608;2023-02-13T19:12:05;5.60;2.20
827;DHT22;395;48.132;11.608;2023-02-13T19:14:30;5.60;2.40
827;DHT22;395;48.132;11.608;2023-02-13T19:16:56;5.60;2.60
827;DHT22;395;48.132;11.608;2023-02-13T19:19:22;5.60;2.70
827;DHT22;395;48.132;11.608;2023-02-13T19:21:47;5.50;2.70
827;DHT22;395;48.132;11.608;2023-02-13T19:24:13;5.50;2.70
827;DHT22;395;48.132;11.608;2023-02-13T19:26:39;5.50;2.80
827;DHT22;395;48.132;11.608;2023-02-13T19:29:05;5.50;2.70
827;DHT22;395;48.132;11.608;2023-02-13T19:31:31;5.50;2.70
827;DHT22;395;48.132;11.608;2023-02-13T19:33:57;5.40;2.60
827;DHT22;395;48.132;11.608;2023-02-13T19:36:28;5.40;2.60
827;DHT22;395;48.132;11.608;2023-02-13T19:38:59;5.40;2.70
827;DHT22;395;48.132;11.608;2023-02-13T19:41:26;5.40;2.70
827;DHT22;395;48.132;11.608;2023-02-13T19:43:53;5.40;2.90
827;DHT22;395;48.132;11.608;2023-02-13T19:46:24;5.40;3.30
827;DHT22;395;48.132;11.608;2023-02-13T19:48:50;5.40;3.40
827;DHT22;395;48.132;11.608;2023-02-13T19:51:19;5.40;3.20
827;DHT22;395;48.132;11.608;2023-02-13T19:53:45;5.40;3.10
827;DHT22;395;48.132;11.608;2023-02-13T19:56:11;5.40;3.00
827;DHT22;395;48.132;11.608;2023-02-13T19:58:38;5.40;2.90
827;DHT22;395;48.132;11.608;2023-02-13T20:01:15;5.40;2.70
827;DHT22;395;48.132;11.608;2023-02-13T20:03:42;5.30;2.40
827;DHT22;395;48.132;11.608;2023-02-13T20:06:14;5.30;2.40
827;DHT22;395;48.132;11.608;2023-02-13T20:08:40;5.30;2.20
827;DHT22;395;48.132;11.608;2023-02-13T20:11:11;5.20;2.00
827;DHT22;395;48.132;11.608;2023-02-13T20:13:37;5.20;1.70
827;DHT22;395;48.132;11.608;2023-02-13T20:16:08;5.20;1.90
827;DHT22;395;48.132;11.608;2023-02-13T20:18:34;5.20;2.00
827;DHT22;395;48.132;11.608;2023-02-13T20:21:08;5.10;2.10
827;DHT22;395;48.132;11.608;2023-02-13T20:23:34;5.10;2.00
827;DHT22;395;48.132;11.608;2023-02-13T20:26:09;5.10;2.10